Ituna, Canada
Current Conditions -  °F | °C
As of 4:00 AM on Friday 24 Oct 2014 (Local Time) from CYQV Reporting Station
Clear Clear  
Wind Chill: 50°   Ceiling: Unl
Heat Index: 50°   Visibility: 9mi
Dew Point: 41°   Wind: 15mph
Humidity: 71%   Direction: 220°SW
Pressure: 29.6"   Gusts: 22mph
Location:  51.17°N, 103.5°W
Report Text: CYQV 241000Z AUTO 22013G19KT 9SM CLR 10/05 A2960 RMK SLP034 DENSITY ALT 1700FT
Loading
Personal Weather Stations






























Interactive Weather Map New forecast layout! Learn more

10-Day Weather Forecast

Advertisements
Track Severe Weather on mobile